Time;durP1;ratioP1;P1;durP2;ratioP2;P2;SDS_P1;SDS_P2;PMS_P1;PMS_P2;Temp;Humidity;BMP_temperature;BMP_pressure;BME280_temperature;BME280_humidity;BME280_pressure;Samples;Min_cycle;Max_cycle;Signal;HPM_P1;HPM_P2
2021/08/13 00:01:59;;;;;;;9.35;8.35;;;;;;;12.80;69.88;97935.41;1708780;82;25723;-88
2021/08/13 00:04:26;;;;;;;9.43;8.08;;;;;;;12.80;69.86;97934.85;1734105;81;25766;-88
2021/08/13 00:06:52;;;;;;;9.90;7.80;;;;;;;12.78;69.89;97936.97;1736262;81;25578;-88
2021/08/13 00:09:21;;;;;;;9.30;8.40;;;;;;;12.70;70.00;97926.86;1743371;81;28041;-88
2021/08/13 00:11:48;;;;;;;11.55;8.15;;;;;;;12.69;70.06;97928.73;1740372;81;25750;-89
2021/08/13 00:14:14;;;;;;;11.95;7.95;;;;;;;12.69;70.05;97927.91;1745537;81;25739;-91
2021/08/13 00:16:41;;;;;;;9.00;8.05;;;;;;;12.61;70.08;97921.69;1745119;81;25841;-90
2021/08/13 00:19:08;;;;;;;8.20;7.25;;;;;;;12.58;70.17;97930.22;1714727;82;25684;-92
2021/08/13 00:21:35;;;;;;;12.85;8.03;;;;;;;12.57;70.11;97934.49;1742180;81;28248;-91
2021/08/13 00:24:01;;;;;;;9.65;8.23;;;;;;;12.56;70.10;97925.53;1727340;81;25229;-89
2021/08/13 00:26:28;;;;;;;9.70;8.45;;;;;;;12.54;70.10;97931.70;1732400;81;25682;-91
2021/08/13 00:28:55;;;;;;;9.50;8.23;;;;;;;12.50;70.18;97930.98;1733194;81;26510;-90
2021/08/13 00:31:21;;;;;;;9.95;8.73;;;;;;;12.47;70.29;97933.58;1738445;81;25320;-90
2021/08/13 00:33:48;;;;;;;13.25;8.93;;;;;;;12.46;70.29;97935.97;1729691;81;27353;-91
2021/08/13 00:36:14;;;;;;;11.73;9.03;;;;;;;12.45;70.28;97945.66;1710358;83;25782;-83
2021/08/13 00:38:41;;;;;;;10.60;9.50;;;;;;;12.39;70.40;97944.63;1753128;81;26302;-90
2021/08/13 00:41:07;;;;;;;11.22;9.28;;;;;;;12.31;70.50;97946.21;1722959;83;25792;-91
2021/08/13 00:43:34;;;;;;;12.43;9.58;;;;;;;12.32;70.53;97953.81;1713131;82;25861;-88
2021/08/13 00:46:01;;;;;;;15.72;9.53;;;;;;;12.27;70.65;97957.13;1710471;83;28131;-86
2021/08/13 00:48:27;;;;;;;10.88;8.35;;;;;;;12.26;70.70;97958.17;1729891;81;25748;-88
2021/08/13 00:50:54;;;;;;;10.50;8.40;;;;;;;12.23;70.71;97952.66;1711874;81;25739;-91
2021/08/13 00:53:21;;;;;;;9.53;8.10;;;;;;;12.20;70.75;97945.45;1713499;83;26458;-91
2021/08/13 00:55:51;;;;;;;9.48;8.38;;;;;;;12.20;70.79;97941.40;1723281;81;25745;-92
2021/08/13 00:58:19;;;;;;;10.45;8.50;;;;;;;12.21;70.79;97944.42;1747398;81;27621;-90
2021/08/13 01:00:46;;;;;;;8.93;8.03;;;;;;;12.17;70.80;97943.19;1736558;81;25689;-90
2021/08/13 01:03:14;;;;;;;10.05;8.45;;;;;;;12.16;70.83;97941.52;1742866;81;25822;-90
2021/08/13 01:05:40;;;;;;;10.50;8.00;;;;;;;12.14;70.86;97935.48;1722286;81;26499;-91
2021/08/13 01:08:07;;;;;;;8.78;7.90;;;;;;;12.13;70.89;97936.52;1733779;81;26257;-90
2021/08/13 01:10:39;;;;;;;9.60;8.35;;;;;;;12.10;70.87;97936.93;1727124;81;27348;-90
2021/08/13 01:13:38;;;;;;;12.65;9.03;;;;;;;12.08;70.93;97936.30;1722707;81;25853;-89
2021/08/13 01:16:06;;;;;;;10.90;9.18;;;;;;;12.04;71.04;97939.12;1707006;81;25803;-89
2021/08/13 01:18:37;;;;;;;12.13;10.28;;;;;;;12.00;71.17;97939.22;1753391;81;25828;-91
2021/08/13 01:21:35;;;;;;;13.90;10.82;;;;;;;11.93;71.27;97938.39;1710386;82;25779;-91
2021/08/13 01:24:11;;;;;;;13.20;10.65;;;;;;;11.87;71.52;97932.76;1720313;81;27391;-87
2021/08/13 01:26:42;;;;;;;11.97;9.88;;;;;;;11.86;71.57;97927.03;1737658;81;25771;-87
2021/08/13 01:29:31;;;;;;;10.98;9.85;;;;;;;11.88;71.52;97929.02;1749796;81;25824;-88
2021/08/13 01:32:12;;;;;;;9.75;8.85;;;;;;;11.85;71.47;97932.12;1747713;81;25755;-90
2021/08/13 01:34:50;;;;;;;10.32;9.23;;;;;;;11.87;71.44;97933.28;1715498;81;25744;-86
2021/08/13 01:37:20;;;;;;;12.65;9.08;;;;;;;11.85;71.48;97926.72;1703209;82;28170;-86
2021/08/13 01:39:49;;;;;;;10.55;9.30;;;;;;;11.84;71.51;97930.45;1727747;81;25768;-90
2021/08/13 01:42:16;;;;;;;12.50;8.98;;;;;;;11.83;71.46;97931.50;1722855;81;25694;-91
2021/08/13 01:44:44;;;;;;;10.53;8.15;;;;;;;11.81;71.42;97930.89;1730868;81;25698;-89
2021/08/13 01:47:11;;;;;;;9.73;8.00;;;;;;;11.81;71.40;97933.60;1713612;82;25819;-90
2021/08/13 01:49:39;;;;;;;8.88;7.97;;;;;;;11.78;71.41;97936.71;1722948;81;27423;-90
2021/08/13 01:52:06;;;;;;;9.48;8.50;;;;;;;11.78;71.48;97935.87;1709766;82;25477;-89
2021/08/13 01:54:34;;;;;;;10.53;8.33;;;;;;;11.78;71.59;97935.36;1732848;81;25726;-89
2021/08/13 01:57:01;;;;;;;10.50;8.38;;;;;;;11.78;71.68;97937.23;1751956;81;25834;-92
2021/08/13 01:59:28;;;;;;;9.10;8.13;;;;;;;11.76;71.66;97927.96;1696094;83;25846;-92
2021/08/13 02:01:54;;;;;;;11.40;8.60;;;;;;;11.76;71.63;97932.54;1728471;81;28405;-84
2021/08/13 02:04:21;;;;;;;11.30;8.83;;;;;;;11.75;71.78;97931.70;1723196;81;26360;-86
2021/08/13 02:06:50;;;;;;;10.08;9.08;;;;;;;11.75;71.86;97934.89;1723181;81;26468;-82
2021/08/13 02:09:19;;;;;;;9.85;8.88;;;;;;;11.74;71.82;97935.93;1716690;81;25696;-88
2021/08/13 02:11:47;;;;;;;13.08;9.35;;;;;;;11.73;71.82;97938.32;1738148;81;25770;-91
2021/08/13 02:14:14;;;;;;;10.30;9.20;;;;;;;11.71;71.85;97941.23;1725886;81;27466;-85
2021/08/13 02:16:44;;;;;;;11.12;8.38;;;;;;;11.70;71.84;97941.45;1715231;82;25773;-89
2021/08/13 02:19:25;;;;;;;10.32;8.35;;;;;;;11.72;71.87;97935.30;1719722;82;25770;-89
2021/08/13 02:21:52;;;;;;;8.45;7.67;;;;;;;11.69;71.87;97924.91;1748177;81;25710;-91
2021/08/13 02:24:19;;;;;;;10.40;8.43;;;;;;;11.69;71.85;97937.09;1725972;82;25717;-87
2021/08/13 02:26:48;;;;;;;11.73;8.00;;;;;;;11.68;71.86;97933.55;1728218;81;27425;-89
2021/08/13 02:29:14;;;;;;;9.28;8.23;;;;;;;11.67;71.87;97928.34;1723004;81;26291;-90
2021/08/13 02:31:41;;;;;;;10.72;8.98;;;;;;;11.66;71.89;97922.62;1730463;81;25770;-87
2021/08/13 02:34:08;;;;;;;10.90;8.95;;;;;;;11.61;71.91;97929.98;1734332;81;26560;-83
2021/08/13 02:36:49;;;;;;;10.68;8.88;;;;;;;11.59;71.90;97934.78;1729681;82;25828;-89
2021/08/13 02:39:27;;;;;;;10.80;7.85;;;;;;;11.56;71.96;97924.38;1729795;82;27395;-89
2021/08/13 02:41:58;;;;;;;10.85;7.58;;;;;;;11.53;72.02;97924.26;1728197;82;25850;-88
2021/08/13 02:44:26;;;;;;;10.45;8.28;;;;;;;11.53;71.89;97933.72;1720572;82;25982;-88
2021/08/13 02:46:58;;;;;;;8.70;7.62;;;;;;;11.52;71.88;97937.45;1709527;83;25733;-88
2021/08/13 02:49:28;;;;;;;9.40;7.80;;;;;;;11.49;71.89;97928.91;1717146;82;25367;-92
2021/08/13 02:52:00;;;;;;;9.50;7.20;;;;;;;11.45;71.99;97933.08;1710116;82;27457;-89
2021/08/13 02:54:29;;;;;;;9.48;7.80;;;;;;;11.42;71.99;97930.78;1729760;82;25786;-89
2021/08/13 02:56:56;;;;;;;8.18;7.37;;;;;;;11.40;72.09;97930.98;1702487;82;25733;-91
2021/08/13 02:59:27;;;;;;;10.08;7.78;;;;;;;11.38;72.06;97928.16;1724035;82;26462;-86
2021/08/13 03:01:56;;;;;;;8.43;7.40;;;;;;;11.37;72.05;97930.55;1741712;82;25278;-92
2021/08/13 03:04:27;;;;;;;10.53;7.85;;;;;;;11.35;72.03;97927.23;1724211;82;28275;-88
2021/08/13 03:06:54;;;;;;;8.73;7.83;;;;;;;11.35;72.07;97929.94;1739065;82;25730;-89
2021/08/13 03:09:23;;;;;;;9.28;8.20;;;;;;;11.34;72.05;97928.27;1732943;82;25794;-89
2021/08/13 03:11:53;;;;;;;11.85;7.97;;;;;;;11.32;72.09;97930.34;1746650;81;26300;-90
2021/08/13 03:14:22;;;;;;;10.58;8.55;;;;;;;11.28;72.11;97930.42;1746463;81;25932;-91
2021/08/13 03:16:50;;;;;;;12.63;9.10;;;;;;;11.24;72.20;97927.80;1746734;81;27525;-92
2021/08/13 03:19:19;;;;;;;13.38;8.78;;;;;;;11.21;72.34;97935.81;1717544;82;25755;-91
2021/08/13 03:21:47;;;;;;;11.83;9.25;;;;;;;11.22;72.42;97924.48;1746581;82;25947;-91
2021/08/13 03:24:14;;;;;;;9.73;8.18;;;;;;;11.24;72.44;97922.39;1735861;81;25755;-91
2021/08/13 03:26:41;;;;;;;9.60;7.97;;;;;;;11.26;72.46;97927.08;1746743;81;25746;-88
2021/08/13 03:29:08;;;;;;;9.78;8.23;;;;;;;11.27;72.40;97924.70;1746568;82;28173;-90
2021/08/13 03:31:38;;;;;;;10.75;8.40;;;;;;;11.26;72.44;97920.33;1743314;81;25835;-89
2021/08/13 03:34:08;;;;;;;12.23;8.98;;;;;;;11.21;72.51;97925.52;1738969;82;25248;-85
2021/08/13 03:36:39;;;;;;;10.25;9.25;;;;;;;11.19;72.61;97921.16;1734640;81;25817;-88
2021/08/13 03:39:08;;;;;;;9.78;8.50;;;;;;;11.21;72.65;97922.82;1723266;81;25833;-91
2021/08/13 03:41:35;;;;;;;12.28;9.20;;;;;;;11.18;72.66;97924.89;1723418;81;28032;-93
2021/08/13 03:44:03;;;;;;;11.25;9.23;;;;;;;11.17;72.83;97921.87;1741430;81;25757;-92
2021/08/13 03:46:30;;;;;;;12.70;9.35;;;;;;;11.10;72.85;97930.48;1725841;81;26174;-86
2021/08/13 03:48:56;;;;;;;13.30;8.75;;;;;;;11.13;73.00;97930.05;1723059;81;26697;-89
2021/08/13 03:51:23;;;;;;;9.70;8.58;;;;;;;11.17;72.98;97935.89;1723142;81;25250;-90
2021/08/13 03:53:50;;;;;;;12.37;8.35;;;;;;;11.17;72.89;97940.78;1722932;81;27402;-87
2021/08/13 03:56:17;;;;;;;11.50;8.45;;;;;;;11.14;72.88;97942.53;1723137;81;25729;-92
2021/08/13 03:58:43;;;;;;;9.48;8.38;;;;;;;11.16;72.89;97942.33;1722946;81;25730;-91
2021/08/13 04:01:10;;;;;;;10.00;8.63;;;;;;;11.17;72.94;97943.48;1723250;81;25724;-90
2021/08/13 04:03:36;;;;;;;11.05;8.95;;;;;;;11.20;73.03;97949.01;1722992;81;25730;-90
2021/08/13 04:06:04;;;;;;;9.90;8.70;;;;;;;11.21;73.12;97945.79;1723313;81;27364;-92
2021/08/13 04:08:30;;;;;;;11.10;9.10;;;;;;;11.22;73.19;97944.76;1723170;81;25706;-90
2021/08/13 04:10:57;;;;;;;13.08;8.98;;;;;;;11.26;73.29;97941.94;1743945;81;25776;-91
2021/08/13 04:13:24;;;;;;;12.43;9.65;;;;;;;11.29;73.40;97934.79;1731891;81;25826;-86
2021/08/13 04:15:50;;;;;;;11.48;10.18;;;;;;;11.31;73.54;97927.31;1752600;81;26336;-89
2021/08/13 04:18:17;;;;;;;14.73;10.78;;;;;;;11.32;73.66;97927.12;1752899;81;26843;-91
2021/08/13 04:20:44;;;;;;;20.00;13.58;;;;;;;11.32;73.84;97929.82;1738892;81;25701;-90
2021/08/13 04:23:10;;;;;;;14.38;11.60;;;;;;;11.34;73.96;97928.27;1726047;81;25654;-84
2021/08/13 04:25:37;;;;;;;15.70;11.68;;;;;;;11.38;74.00;97929.51;1744507;81;25650;-91
2021/08/13 04:28:04;;;;;;;14.80;11.12;;;;;;;11.46;74.18;97922.59;1753119;80;25695;-91
2021/08/13 04:30:31;;;;;;;13.05;10.98;;;;;;;11.53;74.26;97924.77;1734199;81;27410;-90
2021/08/13 04:32:57;;;;;;;14.38;10.80;;;;;;;11.61;74.37;97923.22;1730052;81;25731;-90
2021/08/13 04:35:24;;;;;;;12.68;10.53;;;;;;;11.69;74.40;97922.21;1752862;81;25696;-89
2021/08/13 04:37:51;;;;;;;13.70;10.48;;;;;;;11.76;74.47;97923.07;1727316;81;25938;-90
2021/08/13 04:40:17;;;;;;;14.30;10.78;;;;;;;11.82;74.47;97921.75;1723152;81;25218;-90
2021/08/13 04:42:47;;;;;;;14.80;11.22;;;;;;;11.89;74.59;97922.57;1745908;81;28007;-90
2021/08/13 04:45:13;;;;;;;15.63;11.40;;;;;;;11.94;74.51;97920.61;1742484;81;25713;-91
2021/08/13 04:47:40;;;;;;;18.32;10.82;;;;;;;12.00;74.53;97918.41;1752770;81;26444;-88
2021/08/13 04:50:08;;;;;;;17.42;10.68;;;;;;;12.08;74.59;97924.12;1723025;81;25753;-89
2021/08/13 04:52:47;;;;;;;18.12;10.43;;;;;;;12.12;74.61;97907.80;1741659;81;25738;-89
2021/08/13 04:55:20;;;;;;;14.95;10.85;;;;;;;12.17;74.67;97914.77;1725839;81;27880;-85
2021/08/13 04:57:47;;;;;;;14.78;11.28;;;;;;;12.24;74.60;97912.88;1742506;81;26547;-86
2021/08/13 05:00:15;;;;;;;15.58;11.97;;;;;;;12.31;74.73;97915.08;1724297;81;25735;-86
2021/08/13 05:02:42;;;;;;;12.25;10.98;;;;;;;12.38;74.68;97914.54;1723291;81;26435;-88
2021/08/13 05:05:09;;;;;;;18.23;11.63;;;;;;;12.44;74.80;97921.80;1744340;81;25543;-84
2021/08/13 05:07:36;;;;;;;17.60;11.97;;;;;;;12.50;74.82;97925.56;1732349;81;27606;-83
2021/08/13 05:10:10;;;;;;;19.35;12.03;;;;;;;12.56;74.87;97920.12;1732732;81;25786;-83
2021/08/13 05:12:38;;;;;;;21.25;12.50;;;;;;;12.62;74.90;97922.00;1726773;81;25296;-86
2021/08/13 05:15:07;;;;;;;15.60;12.03;;;;;;;12.69;74.88;97923.32;1740682;81;25859;-90
2021/08/13 05:17:34;;;;;;;14.28;11.20;;;;;;;12.77;74.93;97923.63;1747210;81;25658;-85
2021/08/13 05:20:01;;;;;;;16.48;11.97;;;;;;;12.84;74.90;97931.20;1738679;81;28029;-90
2021/08/13 05:22:28;;;;;;;15.30;11.70;;;;;;;12.91;74.92;97934.75;1727558;81;25759;-90
2021/08/13 05:24:54;;;;;;;19.32;12.33;;;;;;;12.98;74.99;97935.55;1723161;81;25732;-87
2021/08/13 05:27:21;;;;;;;18.35;12.28;;;;;;;13.04;75.11;97937.38;1723351;81;26189;-89
2021/08/13 05:29:47;;;;;;;17.75;13.58;;;;;;;13.08;75.13;97937.80;1730533;81;25683;-89
2021/08/13 05:32:14;;;;;;;18.70;13.43;;;;;;;13.16;75.29;97930.83;1750459;81;27639;-86
2021/08/13 05:34:40;;;;;;;18.27;13.22;;;;;;;13.25;75.28;97929.02;1729477;81;25747;-89
2021/08/13 05:37:07;;;;;;;20.88;13.68;;;;;;;13.34;75.34;97930.42;1750329;81;25724;-88
2021/08/13 05:39:34;;;;;;;24.12;12.68;;;;;;;13.43;75.46;97928.80;1748363;81;25774;-84
2021/08/13 05:42:00;;;;;;;19.67;13.72;;;;;;;13.49;75.50;97936.92;1753341;81;25654;-86
2021/08/13 05:44:27;;;;;;;21.35;13.25;;;;;;;13.56;75.59;97930.92;1748837;81;27432;-87
2021/08/13 05:46:53;;;;;;;25.62;12.82;;;;;;;13.66;75.62;97936.70;1741816;81;26460;-85
2021/08/13 05:49:20;;;;;;;18.62;12.68;;;;;;;13.76;75.60;97930.82;1743568;81;25747;-86
2021/08/13 05:51:46;;;;;;;16.60;11.30;;;;;;;13.85;75.43;97929.50;1728453;81;25660;-86
2021/08/13 05:54:13;;;;;;;17.87;11.30;;;;;;;13.92;75.40;97932.98;1749274;80;25737;-89
2021/08/13 05:56:40;;;;;;;17.17;12.28;;;;;;;14.03;75.47;97930.92;1730192;81;27433;-86
2021/08/13 05:59:06;;;;;;;20.48;12.43;;;;;;;14.11;75.52;97933.08;1727032;81;26363;-89
2021/08/13 06:01:33;;;;;;;18.50;12.55;;;;;;;14.19;75.36;97930.08;1730776;81;25649;-86
2021/08/13 06:03:59;;;;;;;18.82;12.82;;;;;;;14.28;75.31;97930.92;1727009;81;26466;-92
2021/08/13 06:06:27;;;;;;;15.55;11.85;;;;;;;14.39;75.32;97929.36;1727059;81;25744;-90
2021/08/13 06:08:54;;;;;;;15.93;10.88;;;;;;;14.48;75.11;97930.80;1723218;81;27640;-90
2021/08/13 06:11:21;;;;;;;15.48;11.25;;;;;;;14.59;74.87;97934.14;1723217;81;25711;-91
2021/08/13 06:13:47;;;;;;;17.90;11.73;;;;;;;14.69;74.67;97922.22;1723157;81;25842;-89
2021/08/13 06:16:19;;;;;;;17.55;11.85;;;;;;;14.78;74.56;97923.58;1723262;81;25852;-91
2021/08/13 06:18:46;;;;;;;13.32;10.85;;;;;;;14.89;74.75;97921.16;1723417;81;25747;-92
2021/08/13 06:21:13;;;;;;;15.53;10.70;;;;;;;15.00;74.95;97931.28;1732050;81;27412;-91
2021/08/13 06:23:40;;;;;;;17.95;13.05;;;;;;;15.10;74.87;97934.30;1741660;81;25848;-93
2021/08/13 06:26:09;;;;;;;17.15;13.08;;;;;;;15.20;74.77;97935.98;1725494;81;25684;-92
2021/08/13 06:28:36;;;;;;;23.45;16.10;;;;;;;15.32;74.83;97930.07;1723192;81;26626;-91
2021/08/13 06:31:04;;;;;;;25.45;17.02;;;;;;;15.45;74.86;97928.54;1723374;81;26363;-92
2021/08/13 06:33:31;;;;;;;25.72;15.93;;;;;;;15.59;74.91;97929.72;1737064;81;28329;-92
2021/08/13 06:35:58;;;;;;;21.30;15.53;;;;;;;15.73;74.98;97923.04;1731751;81;25921;-86
2021/08/13 06:38:24;;;;;;;11.50;10.30;;;;;;;15.86;75.01;97926.93;1741776;81;25759;-90
2021/08/13 06:40:51;;;;;;;15.08;10.53;;;;;;;16.01;74.99;97926.50;1723140;81;25917;-92
2021/08/13 06:43:18;;;;;;;15.40;9.83;;;;;;;16.15;74.98;97922.52;1722991;81;25829;-87
2021/08/13 06:45:45;;;;;;;13.55;9.88;;;;;;;16.32;74.74;97927.55;1723094;81;27505;-87
2021/08/13 06:48:12;;;;;;;12.50;9.18;;;;;;;16.45;74.71;97926.50;1741919;80;25768;-88
2021/08/13 06:50:38;;;;;;;10.32;9.05;;;;;;;16.60;74.33;97924.14;1723337;81;25684;-92
2021/08/13 06:53:05;;;;;;;11.15;8.73;;;;;;;16.74;74.20;97920.67;1723068;81;25677;-87
2021/08/13 06:55:32;;;;;;;9.60;8.23;;;;;;;16.86;73.86;97917.41;1735919;81;25719;-87
2021/08/13 06:58:03;;;;;;;14.50;8.25;;;;;;;17.01;73.62;97926.45;1731104;80;27209;-86
2021/08/13 07:00:30;;;;;;;12.93;8.38;;;;;;;17.13;73.24;97917.72;1723081;81;25782;-90
2021/08/13 07:02:57;;;;;;;8.80;7.40;;;;;;;17.26;73.19;97918.81;1723173;81;25781;-88
2021/08/13 07:05:24;;;;;;;14.47;8.08;;;;;;;17.40;73.20;97911.98;1744239;81;25727;-90
2021/08/13 07:07:50;;;;;;;12.10;8.43;;;;;;;17.54;72.75;97910.63;1723166;81;25805;-89
2021/08/13 07:10:17;;;;;;;11.43;8.05;;;;;;;17.66;72.52;97916.07;1723259;81;27347;-92
2021/08/13 07:12:44;;;;;;;10.05;7.50;;;;;;;17.77;72.48;97915.19;1722977;81;25706;-89
2021/08/13 07:15:11;;;;;;;8.78;7.08;;;;;;;17.93;72.34;97909.48;1741748;81;25731;-86
2021/08/13 07:17:39;;;;;;;8.50;7.20;;;;;;;18.06;72.09;97902.33;1724734;81;26475;-90
2021/08/13 07:20:07;;;;;;;8.15;7.35;;;;;;;18.19;71.94;97901.19;1723001;81;25772;-93
2021/08/13 07:22:34;;;;;;;8.23;7.20;;;;;;;18.33;71.68;97900.61;1722979;81;27550;-88
2021/08/13 07:25:01;;;;;;;10.32;7.65;;;;;;;18.46;71.32;97897.25;1739592;81;25835;-89
2021/08/13 07:27:28;;;;;;;8.48;6.90;;;;;;;18.57;70.93;97901.80;1723098;81;25692;-86
2021/08/13 07:29:55;;;;;;;9.38;6.80;;;;;;;18.71;70.45;97892.20;1744171;81;25773;-89
2021/08/13 07:32:21;;;;;;;10.48;6.62;;;;;;;18.84;70.04;97890.98;1727329;81;25709;-88
2021/08/13 07:34:48;;;;;;;8.45;7.00;;;;;;;18.97;69.91;97891.98;1722650;81;27431;-87
2021/08/13 07:37:15;;;;;;;10.82;6.55;;;;;;;19.13;69.65;97890.28;1709061;82;25864;-84
2021/08/13 07:39:41;;;;;;;7.45;6.50;;;;;;;19.32;69.62;97884.22;1704458;82;25925;-91
2021/08/13 07:42:08;;;;;;;9.13;6.62;;;;;;;19.58;69.20;97881.27;1702888;83;25724;-89
2021/08/13 07:44:35;;;;;;;8.35;6.30;;;;;;;19.82;68.54;97884.52;1704325;82;25513;-88
2021/08/13 07:47:02;;;;;;;7.45;6.10;;;;;;;20.07;68.15;97881.20;1690384;83;28786;-89
2021/08/13 07:49:29;;;;;;;10.08;5.85;;;;;;;20.42;67.85;97885.63;1704385;82;25733;-88
2021/08/13 07:51:55;;;;;;;8.03;5.87;;;;;;;20.89;67.28;97886.21;1701659;84;25812;-86
2021/08/13 07:54:22;;;;;;;12.85;6.20;;;;;;;21.36;67.04;97886.77;1719163;83;25819;-85
2021/08/13 07:56:49;;;;;;;9.93;6.10;;;;;;;21.78;66.29;97882.48;1733385;82;25752;-88
2021/08/13 07:59:16;;;;;;;7.70;5.95;;;;;;;22.08;65.41;97883.12;1696212;83;47590;-88
2021/08/13 08:01:43;;;;;;;5.75;5.20;;;;;;;22.39;64.52;97883.38;1733316;82;25971;-85
2021/08/13 08:04:09;;;;;;;10.68;5.92;;;;;;;22.52;64.34;97888.33;1719610;82;25751;-87
2021/08/13 08:06:36;;;;;;;8.45;6.03;;;;;;;22.74;64.04;97892.15;1695019;83;25941;-89
2021/08/13 08:09:02;;;;;;;7.33;6.17;;;;;;;23.10;63.53;97890.72;1703930;82;25784;-84
2021/08/13 08:11:29;;;;;;;9.25;5.33;;;;;;;23.34;63.01;97893.94;1704293;82;28273;-88
2021/08/13 08:13:55;;;;;;;6.10;5.50;;;;;;;23.55;62.22;97893.87;1696032;83;25726;-86
2021/08/13 08:16:22;;;;;;;8.65;6.33;;;;;;;23.84;61.57;97890.69;1733005;82;25903;-85
2021/08/13 08:18:49;;;;;;;10.00;5.33;;;;;;;24.17;61.48;97884.11;1698410;83;26441;-86
2021/08/13 08:21:15;;;;;;;6.25;4.47;;;;;;;24.51;61.00;97886.38;1704372;82;25739;-86
2021/08/13 08:23:42;;;;;;;10.88;5.03;;;;;;;24.83;59.86;97879.43;1694359;83;27343;-85
2021/08/13 08:26:08;;;;;;;8.95;4.80;;;;;;;25.08;59.49;97880.58;1706488;82;25759;-87
2021/08/13 08:28:35;;;;;;;9.85;4.67;;;;;;;25.36;58.49;97881.60;1690458;83;25715;-85
2021/08/13 08:31:02;;;;;;;6.90;4.80;;;;;;;25.70;58.07;97880.11;1704340;82;25900;-87
2021/08/13 08:33:28;;;;;;;8.13;5.20;;;;;;;25.99;56.86;97882.16;1703703;83;25876;-85
2021/08/13 08:35:55;;;;;;;8.50;4.75;;;;;;;26.26;56.25;97880.64;1696758;83;28105;-85
2021/08/13 08:38:21;;;;;;;9.38;5.17;;;;;;;26.50;55.63;97880.82;1720444;81;25800;-90
2021/08/13 08:40:49;;;;;;;5.72;4.58;;;;;;;26.74;55.16;97887.60;1727716;81;25714;-85
2021/08/13 08:43:16;;;;;;;10.15;4.70;;;;;;;26.94;54.27;97894.73;1707572;81;25813;-85
2021/08/13 08:45:43;;;;;;;12.15;5.30;;;;;;;27.07;53.33;97898.66;1734560;82;26283;-88
2021/08/13 08:48:11;;;;;;;5.10;4.42;;;;;;;27.21;53.24;97887.84;1734802;82;27276;-84
2021/08/13 08:50:43;;;;;;;5.70;4.50;;;;;;;27.40;52.74;97896.08;1731894;82;25941;-86
2021/08/13 08:53:18;;;;;;;6.12;5.17;;;;;;;27.46;52.03;97896.77;1734287;82;25839;-84
2021/08/13 08:55:44;;;;;;;10.72;4.92;;;;;;;27.72;51.72;97895.14;1732475;82;26040;-85
2021/08/13 08:58:12;;;;;;;6.55;4.00;;;;;;;27.83;50.79;97888.23;1732295;82;25662;-83
2021/08/13 09:00:39;;;;;;;10.93;4.33;;;;;;;28.08;50.70;97891.56;1735443;82;28185;-84
2021/08/13 09:03:06;;;;;;;9.25;4.65;;;;;;;28.38;50.29;97891.45;1727492;82;25662;-84
2021/08/13 09:05:33;;;;;;;8.30;4.28;;;;;;;28.55;49.33;97894.33;1733320;82;25890;-83
2021/08/13 09:08:00;;;;;;;9.93;4.33;;;;;;;28.51;48.25;97887.20;1735558;82;25784;-84
2021/08/13 09:10:27;;;;;;;4.55;4.08;;;;;;;28.62;48.16;97890.53;1725806;81;25694;-84
2021/08/13 09:12:53;;;;;;;5.85;3.95;;;;;;;28.76;47.90;97876.00;1721230;81;27356;-86
2021/08/13 09:15:41;;;;;;;5.25;4.20;;;;;;;28.99;47.28;97880.97;1743734;81;25695;-87
2021/08/13 09:18:21;;;;;;;6.97;4.50;;;;;;;29.18;46.70;97880.19;1733350;80;25696;-87
2021/08/13 09:21:01;;;;;;;5.62;4.17;;;;;;;29.33;46.02;97877.55;1741628;80;26477;-87
2021/08/13 09:23:43;;;;;;;7.85;4.55;;;;;;;29.44;46.30;97880.31;1745143;81;25753;-84
2021/08/13 09:26:14;;;;;;;5.42;4.20;;;;;;;29.46;45.55;97878.60;1737949;81;28757;-84
2021/08/13 09:28:53;;;;;;;5.60;3.92;;;;;;;29.40;45.11;97876.53;1750608;81;25678;-85
2021/08/13 09:31:30;;;;;;;5.62;4.75;;;;;;;29.28;44.50;97877.11;1752563;81;25729;-86
2021/08/13 09:34:13;;;;;;;5.67;3.87;;;;;;;29.02;44.84;97874.22;1753201;81;25785;-85
2021/08/13 09:36:54;;;;;;;14.75;4.72;;;;;;;28.76;44.54;97876.00;1705949;83;25794;-86
2021/08/13 09:39:29;;;;;;;7.22;4.80;;;;;;;28.78;44.98;97873.77;1688197;84;27584;-83
2021/08/13 09:41:59;;;;;;;6.47;4.80;;;;;;;28.93;45.34;97884.48;1711675;82;25344;-85
2021/08/13 09:44:31;;;;;;;5.45;3.50;;;;;;;29.03;45.29;97884.20;1708118;82;25818;-86
2021/08/13 09:47:12;;;;;;;7.15;4.15;;;;;;;28.95;45.06;97880.81;1716835;81;25730;-86
2021/08/13 09:49:43;;;;;;;8.13;4.33;;;;;;;28.89;44.92;97877.91;1717754;81;25537;-85
2021/08/13 09:52:19;;;;;;;5.60;4.12;;;;;;;28.78;44.66;97872.91;1718245;81;27378;-86
2021/08/13 09:54:48;;;;;;;5.47;4.50;;;;;;;28.77;44.85;97874.86;1719375;81;25664;-85
2021/08/13 09:57:17;;;;;;;7.50;4.25;;;;;;;28.93;44.57;97873.36;1719706;81;26574;-87
2021/08/13 10:00:03;;;;;;;4.80;4.22;;;;;;;29.07;43.86;97876.05;1715356;81;25845;-86
2021/08/13 10:02:35;;;;;;;5.40;4.28;;;;;;;29.07;43.29;97879.39;1707398;82;25729;-86
2021/08/13 10:05:21;;;;;;;5.87;4.12;;;;;;;29.16;43.56;97881.06;1714459;82;28728;-85
2021/08/13 10:07:54;;;;;;;6.70;4.70;;;;;;;29.27;43.52;97874.65;1711022;81;26013;-86
2021/08/13 10:10:36;;;;;;;10.63;4.10;;;;;;;29.38;43.23;97877.41;1717823;82;25824;-86
2021/08/13 10:13:06;;;;;;;5.00;4.55;;;;;;;29.50;43.54;97874.84;1719601;81;26421;-86
2021/08/13 10:15:45;;;;;;;6.03;4.03;;;;;;;29.62;43.17;97878.38;1720129;82;26061;-86
2021/08/13 10:18:14;;;;;;;4.97;4.45;;;;;;;29.65;43.21;97879.95;1720633;82;27419;-85
2021/08/13 10:20:48;;;;;;;4.72;4.25;;;;;;;29.76;43.29;97873.51;1719674;82;25725;-86
2021/08/13 10:23:15;;;;;;;7.25;4.58;;;;;;;29.79;42.65;97871.47;1701163;83;25724;-86
2021/08/13 10:25:43;;;;;;;5.50;4.30;;;;;;;29.90;43.37;97876.16;1702090;83;25806;-86
2021/08/13 10:28:10;;;;;;;5.90;4.40;;;;;;;29.98;42.91;97874.80;1701625;83;25777;-86
2021/08/13 10:30:36;;;;;;;6.45;4.80;;;;;;;29.95;42.33;97871.80;1699629;83;27425;-86
2021/08/13 10:33:07;;;;;;;8.53;3.77;;;;;;;29.94;41.99;97871.58;1699520;83;25803;-86
2021/08/13 10:35:49;;;;;;;4.87;4.37;;;;;;;29.94;42.10;97875.19;1699401;83;25774;-85
2021/08/13 10:38:18;;;;;;;4.50;3.95;;;;;;;29.99;41.83;97864.48;1680452;84;25788;-86
2021/08/13 10:40:47;;;;;;;4.75;4.33;;;;;;;30.04;41.48;97864.33;1692073;84;26351;-87
2021/08/13 10:43:15;;;;;;;7.80;4.22;;;;;;;30.00;41.45;97869.72;1699310;83;27359;-86
2021/08/13 10:45:43;;;;;;;4.80;4.33;;;;;;;30.06;41.57;97860.66;1700779;84;25668;-86
2021/08/13 10:48:23;;;;;;;7.62;4.33;;;;;;;30.06;41.84;97856.48;1699445;84;26017;-86
2021/08/13 10:50:58;;;;;;;6.05;4.37;;;;;;;30.04;41.26;97858.77;1700796;83;25800;-86
2021/08/13 10:53:31;;;;;;;4.72;4.22;;;;;;;30.00;41.40;97856.38;1696185;84;25905;-85
2021/08/13 10:56:00;;;;;;;5.22;4.72;;;;;;;30.00;41.70;97860.55;1696222;83;28293;-85
2021/08/13 10:58:45;;;;;;;4.55;4.05;;;;;;;30.07;41.29;97860.88;1689638;83;25766;-86
2021/08/13 11:01:21;;;;;;;5.70;4.47;;;;;;;30.06;40.88;97864.83;1685616;84;25812;-86
2021/08/13 11:03:59;;;;;;;6.17;4.37;;;;;;;29.95;41.68;97863.45;1691284;84;25807;-88
2021/08/13 11:06:42;;;;;;;7.30;4.33;;;;;;;29.99;42.09;97857.52;1681922;84;25679;-86
2021/08/13 11:09:10;;;;;;;6.20;4.45;;;;;;;30.03;42.03;97857.95;1673866;84;27333;-85
2021/08/13 11:11:58;;;;;;;7.87;5.00;;;;;;;30.08;41.93;97853.59;1673807;84;25767;-85
2021/08/13 11:14:28;;;;;;;7.53;4.70;;;;;;;30.17;41.67;97848.61;1673856;84;25742;-86
2021/08/13 11:16:56;;;;;;;5.10;4.50;;;;;;;30.15;41.30;97841.98;1673865;84;25798;-86
2021/08/13 11:19:24;;;;;;;5.95;4.30;;;;;;;30.15;41.11;97841.98;1673579;84;25744;-86
2021/08/13 11:21:58;;;;;;;6.45;4.53;;;;;;;30.16;41.52;97836.66;1673967;84;28179;-86
2021/08/13 11:24:48;;;;;;;7.17;4.42;;;;;;;30.19;41.92;97835.98;1673251;84;26398;-86
2021/08/13 11:27:15;;;;;;;;;;;;;;;30.27;42.22;97833.78;1676365;84;25876;-86
2021/08/13 11:29:45;;;;;;;6.78;4.60;;;;;;;30.25;41.35;97830.50;1687652;84;26675;-86
2021/08/13 11:32:22;;;;;;;6.40;4.50;;;;;;;30.21;41.70;97828.69;1689155;84;25892;-86
2021/08/13 11:35:05;;;;;;;8.23;4.78;;;;;;;30.12;41.47;97832.88;1693881;84;27469;-86
2021/08/13 11:37:46;;;;;;;7.55;5.03;;;;;;;29.97;41.90;97826.41;1706829;82;25892;-86